sensor_id;sensor_type;location;lat;lon;timestamp;pressure;altitude;pressure_sealevel;temperature;humidity
17054;BME280;8643;48.824;11.422;2023-04-20T00:00:02;96900.38;;;0.18;100.00
17054;BME280;8643;48.824;11.422;2023-04-20T00:02:40;96896.09;;;0.28;100.00
17054;BME280;8643;48.824;11.422;2023-04-20T00:05:10;96893.94;;;0.25;100.00
17054;BME280;8643;48.824;11.422;2023-04-20T00:07:40;96891.19;;;0.09;100.00
17054;BME280;8643;48.824;11.422;2023-04-20T00:10:09;96889.03;;;0.01;100.00
17054;BME280;8643;48.824;11.422;2023-04-20T00:12:38;96875.81;;;-0.06;100.00
17054;BME280;8643;48.824;11.422;2023-04-20T00:15:09;96882.78;;;-0.15;100.00
17054;BME280;8643;48.824;11.422;2023-04-20T00:17:38;96887.09;;;-0.19;100.00
17054;BME280;8643;48.824;11.422;2023-04-20T00:20:07;96879.31;;;-0.05;100.00
17054;BME280;8643;48.824;11.422;2023-04-20T00:22:37;96876.13;;;0.08;100.00
17054;BME280;8643;48.824;11.422;2023-04-20T00:25:08;96873.72;;;0.12;100.00
17054;BME280;8643;48.824;11.422;2023-04-20T00:27:37;96875.56;;;0.01;100.00
17054;BME280;8643;48.824;11.422;2023-04-20T00:30:08;96865.06;;;-0.06;100.00
17054;BME280;8643;48.824;11.422;2023-04-20T00:32:36;96864.25;;;-0.06;100.00
17054;BME280;8643;48.824;11.422;2023-04-20T00:35:07;96857.53;;;0.02;100.00
17054;BME280;8643;48.824;11.422;2023-04-20T00:37:36;96853.25;;;0.11;100.00
17054;BME280;8643;48.824;11.422;2023-04-20T00:40:07;96849.75;;;0.21;100.00
17054;BME280;8643;48.824;11.422;2023-04-20T00:42:36;96845.19;;;0.26;100.00
17054;BME280;8643;48.824;11.422;2023-04-20T00:45:07;96840.09;;;0.35;100.00
17054;BME280;8643;48.824;11.422;2023-04-20T00:47:37;96825.00;;;0.39;100.00
17054;BME280;8643;48.824;11.422;2023-04-20T00:50:07;96818.53;;;0.50;100.00
17054;BME280;8643;48.824;11.422;2023-04-20T00:52:38;96822.31;;;0.44;100.00
17054;BME280;8643;48.824;11.422;2023-04-20T00:55:09;96823.91;;;0.30;100.00
17054;BME280;8643;48.824;11.422;2023-04-20T00:57:39;96820.13;;;0.26;100.00
17054;BME280;8643;48.824;11.422;2023-04-20T01:00:09;96815.28;;;0.17;100.00
17054;BME280;8643;48.824;11.422;2023-04-20T01:02:37;96808.00;;;0.03;100.00
17054;BME280;8643;48.824;11.422;2023-04-20T01:05:07;96818.50;;;0.04;100.00
17054;BME280;8643;48.824;11.422;2023-04-20T01:07:36;96810.69;;;-0.08;100.00
17054;BME280;8643;48.824;11.422;2023-04-20T01:10:08;96800.19;;;-0.09;100.00
17054;BME280;8643;48.824;11.422;2023-04-20T01:12:39;96800.44;;;-0.11;100.00
17054;BME280;8643;48.824;11.422;2023-04-20T01:15:10;96804.50;;;-0.03;100.00
17054;BME280;8643;48.824;11.422;2023-04-20T01:17:39;96796.94;;;-0.06;100.00
17054;BME280;8643;48.824;11.422;2023-04-20T01:20:10;96789.16;;;-0.03;100.00
17054;BME280;8643;48.824;11.422;2023-04-20T01:22:45;96791.00;;;-0.08;100.00
17054;BME280;8643;48.824;11.422;2023-04-20T01:25:15;96787.53;;;-0.04;100.00
17054;BME280;8643;48.824;11.422;2023-04-20T01:27:43;96788.63;;;-0.05;100.00
17054;BME280;8643;48.824;11.422;2023-04-20T01:30:13;96791.56;;;-0.11;100.00
17054;BME280;8643;48.824;11.422;2023-04-20T01:32:43;96788.84;;;-0.16;100.00
17054;BME280;8643;48.824;11.422;2023-04-20T01:35:12;96780.53;;;-0.10;100.00
17054;BME280;8643;48.824;11.422;2023-04-20T01:37:45;96785.09;;;-0.10;100.00
17054;BME280;8643;48.824;11.422;2023-04-20T01:40:14;96773.53;;;-0.11;100.00
17054;BME280;8643;48.824;11.422;2023-04-20T01:42:43;96775.16;;;-0.05;100.00
17054;BME280;8643;48.824;11.422;2023-04-20T01:45:12;96771.66;;;0.00;100.00
17054;BME280;8643;48.824;11.422;2023-04-20T01:47:40;96769.25;;;0.04;100.00
17054;BME280;8643;48.824;11.422;2023-04-20T01:50:09;96763.06;;;0.08;100.00
17054;BME280;8643;48.824;11.422;2023-04-20T01:52:38;96767.06;;;0.11;100.00
17054;BME280;8643;48.824;11.422;2023-04-20T01:55:09;96761.69;;;0.16;100.00
17054;BME280;8643;48.824;11.422;2023-04-20T01:57:38;96760.88;;;0.21;100.00
17054;BME280;8643;48.824;11.422;2023-04-20T02:00:08;96755.50;;;0.31;100.00
17054;BME280;8643;48.824;11.422;2023-04-20T02:02:43;96748.78;;;0.28;100.00
17054;BME280;8643;48.824;11.422;2023-04-20T02:05:12;96755.75;;;0.29;100.00
17054;BME280;8643;48.824;11.422;2023-04-20T02:07:40;96750.38;;;0.24;100.00
17054;BME280;8643;48.824;11.422;2023-04-20T02:10:11;96739.59;;;0.29;100.00
17054;BME280;8643;48.824;11.422;2023-04-20T02:12:44;96748.75;;;0.39;100.00
17054;BME280;8643;48.824;11.422;2023-04-20T02:15:13;96746.88;;;0.49;100.00
17054;BME280;8643;48.824;11.422;2023-04-20T02:17:42;96753.06;;;0.55;100.00
17054;BME280;8643;48.824;11.422;2023-04-20T02:20:11;96758.72;;;0.64;100.00
17054;BME280;8643;48.824;11.422;2023-04-20T02:22:40;96756.28;;;0.62;100.00
17054;BME280;8643;48.824;11.422;2023-04-20T02:25:11;96751.97;;;0.66;100.00
17054;BME280;8643;48.824;11.422;2023-04-20T02:27:40;96761.41;;;0.69;100.00
17054;BME280;8643;48.824;11.422;2023-04-20T02:30:11;96754.91;;;0.70;100.00
17054;BME280;8643;48.824;11.422;2023-04-20T02:32:42;96749.53;;;0.75;100.00
17054;BME280;8643;48.824;11.422;2023-04-20T02:35:11;96756.03;;;0.64;100.00
17054;BME280;8643;48.824;11.422;2023-04-20T02:37:42;96750.34;;;0.60;100.00
17054;BME280;8643;48.824;11.422;2023-04-20T02:40:13;96751.16;;;0.61;100.00
17054;BME280;8643;48.824;11.422;2023-04-20T02:42:42;96751.69;;;0.63;100.00
17054;BME280;8643;48.824;11.422;2023-04-20T02:45:11;96746.81;;;0.70;100.00
17054;BME280;8643;48.824;11.422;2023-04-20T02:47:43;96740.38;;;0.71;100.00
17054;BME280;8643;48.824;11.422;2023-04-20T02:50:14;96738.75;;;0.70;100.00
17054;BME280;8643;48.824;11.422;2023-04-20T02:52:59;96731.22;;;0.67;100.00
17054;BME280;8643;48.824;11.422;2023-04-20T02:55:31;96733.09;;;0.61;100.00
17054;BME280;8643;48.824;11.422;2023-04-20T02:58:04;96733.66;;;0.58;100.00
17054;BME280;8643;48.824;11.422;2023-04-20T03:00:57;96729.06;;;0.59;100.00
17054;BME280;8643;48.824;11.422;2023-04-20T03:03:26;96730.13;;;0.63;100.00
17054;BME280;8643;48.824;11.422;2023-04-20T03:05:56;96729.59;;;0.66;100.00
17054;BME280;8643;48.824;11.422;2023-04-20T03:08:24;96729.31;;;0.67;100.00
17054;BME280;8643;48.824;11.422;2023-04-20T03:10:57;96737.44;;;0.62;100.00
17054;BME280;8643;48.824;11.422;2023-04-20T03:13:25;96733.91;;;0.62;100.00
17054;BME280;8643;48.824;11.422;2023-04-20T03:15:59;96727.44;;;0.68;100.00
17054;BME280;8643;48.824;11.422;2023-04-20T03:18:33;96728.50;;;0.72;100.00
17054;BME280;8643;48.824;11.422;2023-04-20T03:21:02;96735.47;;;0.78;100.00
17054;BME280;8643;48.824;11.422;2023-04-20T03:23:31;96736.56;;;0.82;100.00
17054;BME280;8643;48.824;11.422;2023-04-20T03:26:03;96726.84;;;0.86;100.00
17054;BME280;8643;48.824;11.422;2023-04-20T03:28:50;96727.88;;;0.96;100.00
17054;BME280;8643;48.824;11.422;2023-04-20T03:31:23;96726.78;;;1.07;100.00
17054;BME280;8643;48.824;11.422;2023-04-20T03:33:55;96729.72;;;1.10;100.00
17054;BME280;8643;48.824;11.422;2023-04-20T03:36:24;96727.81;;;1.16;100.00
17054;BME280;8643;48.824;11.422;2023-04-20T03:38:55;96727.56;;;1.18;100.00
17054;BME280;8643;48.824;11.422;2023-04-20T03:41:25;96721.06;;;1.24;100.00
17054;BME280;8643;48.824;11.422;2023-04-20T03:43:54;96721.56;;;1.31;100.00
17054;BME280;8643;48.824;11.422;2023-04-20T03:46:23;96730.16;;;1.33;100.00
17054;BME280;8643;48.824;11.422;2023-04-20T03:48:52;96721.53;;;1.36;100.00
17054;BME280;8643;48.824;11.422;2023-04-20T03:51:20;96717.19;;;1.40;100.00
17054;BME280;8643;48.824;11.422;2023-04-20T03:53:49;96720.94;;;1.44;100.00
17054;BME280;8643;48.824;11.422;2023-04-20T03:56:18;96709.28;;;1.54;100.00
17054;BME280;8643;48.824;11.422;2023-04-20T03:58:49;96706.06;;;1.52;100.00
17054;BME280;8643;48.824;11.422;2023-04-20T04:01:22;96703.88;;;1.54;100.00
17054;BME280;8643;48.824;11.422;2023-04-20T04:03:51;96712.78;;;1.55;100.00
17054;BME280;8643;48.824;11.422;2023-04-20T04:06:20;96703.88;;;1.54;100.00
17054;BME280;8643;48.824;11.422;2023-04-20T04:08:50;96700.91;;;1.56;100.00
17054;BME280;8643;48.824;11.422;2023-04-20T04:11:19;96715.47;;;1.55;100.00
17054;BME280;8643;48.824;11.422;2023-04-20T04:13:50;96715.22;;;1.51;100.00
17054;BME280;8643;48.824;11.422;2023-04-20T04:16:19;96710.34;;;1.58;100.00
17054;BME280;8643;48.824;11.422;2023-04-20T04:18:49;96718.44;;;1.58;100.00
17054;BME280;8643;48.824;11.422;2023-04-20T04:21:18;96711.16;;;1.59;100.00
17054;BME280;8643;48.824;11.422;2023-04-20T04:23:54;96715.16;;;1.67;100.00
17054;BME280;8643;48.824;11.422;2023-04-20T04:26:35;96719.41;;;1.73;100.00
17054;BME280;8643;48.824;11.422;2023-04-20T04:29:05;96712.41;;;1.72;100.00
17054;BME280;8643;48.824;11.422;2023-04-20T04:31:34;96712.63;;;1.80;100.00
17054;BME280;8643;48.824;11.422;2023-04-20T04:34:10;96722.59;;;1.85;100.00
17054;BME280;8643;48.824;11.422;2023-04-20T04:36:46;96717.97;;;1.91;100.00
17054;BME280;8643;48.824;11.422;2023-04-20T04:39:19;96707.44;;;1.89;100.00
17054;BME280;8643;48.824;11.422;2023-04-20T04:41:59;96706.84;;;1.97;100.00
17054;BME280;8643;48.824;11.422;2023-04-20T04:44:40;96710.53;;;2.07;100.00
17054;BME280;8643;48.824;11.422;2023-04-20T04:47:13;96712.06;;;2.18;100.00
17054;BME280;8643;48.824;11.422;2023-04-20T04:49:44;96706.66;;;2.18;100.00
17054;BME280;8643;48.824;11.422;2023-04-20T04:52:13;96713.69;;;2.19;100.00
17054;BME280;8643;48.824;11.422;2023-04-20T04:54:42;96704.50;;;2.20;100.00
17054;BME280;8643;48.824;11.422;2023-04-20T04:57:11;96707.72;;;2.22;100.00
17054;BME280;8643;48.824;11.422;2023-04-20T04:59:42;96703.34;;;2.26;100.00
17054;BME280;8643;48.824;11.422;2023-04-20T05:02:11;96709.31;;;2.28;100.00
17054;BME280;8643;48.824;11.422;2023-04-20T05:04:39;96713.22;;;2.41;100.00
17054;BME280;8643;48.824;11.422;2023-04-20T05:07:08;96710.78;;;2.39;100.00
17054;BME280;8643;48.824;11.422;2023-04-20T05:09:37;96707.63;;;2.32;100.00
17054;BME280;8643;48.824;11.422;2023-04-20T05:12:06;96706.72;;;2.42;100.00
17054;BME280;8643;48.824;11.422;2023-04-20T05:14:35;96714.50;;;2.49;100.00
17054;BME280;8643;48.824;11.422;2023-04-20T05:17:05;96713.09;;;2.56;100.00
17054;BME280;8643;48.824;11.422;2023-04-20T05:19:34;96712.03;;;2.52;100.00
17054;BME280;8643;48.824;11.422;2023-04-20T05:22:02;96719.28;;;2.57;100.00
17054;BME280;8643;48.824;11.422;2023-04-20T05:24:31;96720.47;;;2.75;100.00
17054;BME280;8643;48.824;11.422;2023-04-20T05:27:00;96720.00;;;2.68;100.00
17054;BME280;8643;48.824;11.422;2023-04-20T05:29:29;96713.41;;;2.79;100.00
17054;BME280;8643;48.824;11.422;2023-04-20T05:31:58;96722.03;;;2.81;100.00
17054;BME280;8643;48.824;11.422;2023-04-20T05:34:28;96720.75;;;2.98;100.00
17054;BME280;8643;48.824;11.422;2023-04-20T05:36:57;96720.47;;;2.99;100.00
17054;BME280;8643;48.824;11.422;2023-04-20T05:39:26;96717.34;;;3.11;100.00
17054;BME280;8643;48.824;11.422;2023-04-20T05:41:55;96720.75;;;3.22;100.00
17054;BME280;8643;48.824;11.422;2023-04-20T05:44:24;96721.97;;;3.10;100.00
17054;BME280;8643;48.824;11.422;2023-04-20T05:46:53;96720.00;;;3.16;100.00
17054;BME280;8643;48.824;11.422;2023-04-20T05:49:22;96715.91;;;3.19;100.00
17054;BME280;8643;48.824;11.422;2023-04-20T05:51:52;96703.94;;;3.25;100.00
17054;BME280;8643;48.824;11.422;2023-04-20T05:54:20;96704.00;;;3.20;100.00
17054;BME280;8643;48.824;11.422;2023-04-20T05:56:49;96711.59;;;3.18;100.00
17054;BME280;8643;48.824;11.422;2023-04-20T05:59:17;96707.72;;;3.24;100.00
17054;BME280;8643;48.824;11.422;2023-04-20T06:01:46;96702.50;;;3.33;100.00
17054;BME280;8643;48.824;11.422;2023-04-20T06:04:15;96709.78;;;3.32;100.00
17054;BME280;8643;48.824;11.422;2023-04-20T06:06:44;96707.09;;;3.32;100.00
17054;BME280;8643;48.824;11.422;2023-04-20T06:09:14;96714.94;;;3.53;100.00
17054;BME280;8643;48.824;11.422;2023-04-20T06:11:43;96714.88;;;3.58;100.00
17054;BME280;8643;48.824;11.422;2023-04-20T06:14:11;96715.53;;;3.69;100.00
17054;BME280;8643;48.824;11.422;2023-04-20T06:16:40;96711.88;;;3.78;100.00
17054;BME280;8643;48.824;11.422;2023-04-20T06:19:09;96710.41;;;3.86;100.00
17054;BME280;8643;48.824;11.422;2023-04-20T06:21:38;96718.22;;;3.88;100.00
17054;BME280;8643;48.824;11.422;2023-04-20T06:24:07;96716.91;;;4.04;100.00
17054;BME280;8643;48.824;11.422;2023-04-20T06:26:37;96718.78;;;4.22;100.00
17054;BME280;8643;48.824;11.422;2023-04-20T06:29:06;96716.78;;;4.28;100.00
17054;BME280;8643;48.824;11.422;2023-04-20T06:31:35;96720.66;;;4.41;100.00
17054;BME280;8643;48.824;11.422;2023-04-20T06:34:04;96710.19;;;4.34;100.00
17054;BME280;8643;48.824;11.422;2023-04-20T06:36:33;96712.94;;;4.48;100.00
17054;BME280;8643;48.824;11.422;2023-04-20T06:39:02;96714.59;;;4.63;100.00
17054;BME280;8643;48.824;11.422;2023-04-20T06:41:31;96718.69;;;4.61;100.00
17054;BME280;8643;48.824;11.422;2023-04-20T06:44:06;96720.25;;;4.48;100.00
17054;BME280;8643;48.824;11.422;2023-04-20T06:46:37;96721.84;;;4.68;100.00
17054;BME280;8643;48.824;11.422;2023-04-20T06:49:05;96722.72;;;4.63;100.00
17054;BME280;8643;48.824;11.422;2023-04-20T06:51:34;96722.81;;;4.72;100.00
17054;BME280;8643;48.824;11.422;2023-04-20T06:54:03;96723.22;;;4.79;100.00
17054;BME280;8643;48.824;11.422;2023-04-20T06:56:32;96732.53;;;4.59;100.00
17054;BME280;8643;48.824;11.422;2023-04-20T06:59:02;96724.91;;;4.61;100.00
17054;BME280;8643;48.824;11.422;2023-04-20T07:01:31;96722.88;;;4.86;100.00
17054;BME280;8643;48.824;11.422;2023-04-20T07:04:00;96716.94;;;4.98;100.00
17054;BME280;8643;48.824;11.422;2023-04-20T07:06:29;96712.03;;;5.13;100.00
17054;BME280;8643;48.824;11.422;2023-04-20T07:08:58;96712.31;;;5.26;100.00
17054;BME280;8643;48.824;11.422;2023-04-20T07:11:27;96705.63;;;5.46;100.00
17054;BME280;8643;48.824;11.422;2023-04-20T07:13:55;96697.94;;;5.76;100.00
17054;BME280;8643;48.824;11.422;2023-04-20T07:16:24;96701.34;;;5.81;100.00
17054;BME280;8643;48.824;11.422;2023-04-20T07:18:54;96703.81;;;6.05;100.00
17054;BME280;8643;48.824;11.422;2023-04-20T07:21:23;96706.97;;;5.99;100.00
17054;BME280;8643;48.824;11.422;2023-04-20T07:23:51;96701.47;;;5.76;100.00
17054;BME280;8643;48.824;11.422;2023-04-20T07:26:20;96697.09;;;5.53;100.00
17054;BME280;8643;48.824;11.422;2023-04-20T07:28:49;96706.03;;;5.53;100.00
17054;BME280;8643;48.824;11.422;2023-04-20T07:31:18;96709.22;;;5.69;100.00
17054;BME280;8643;48.824;11.422;2023-04-20T07:33:49;96703.13;;;5.86;100.00
17054;BME280;8643;48.824;11.422;2023-04-20T07:36:19;96703.38;;;6.35;100.00
17054;BME280;8643;48.824;11.422;2023-04-20T07:38:49;96705.84;;;7.08;100.00
17054;BME280;8643;48.824;11.422;2023-04-20T07:41:17;96702.34;;;7.16;100.00
17054;BME280;8643;48.824;11.422;2023-04-20T07:43:49;96697.69;;;7.16;100.00
17054;BME280;8643;48.824;11.422;2023-04-20T07:46:21;96703.44;;;7.15;100.00
17054;BME280;8643;48.824;11.422;2023-04-20T07:48:50;96705.03;;;7.07;100.00
17054;BME280;8643;48.824;11.422;2023-04-20T07:51:20;96697.84;;;7.11;100.00
17054;BME280;8643;48.824;11.422;2023-04-20T07:53:49;96697.69;;;7.16;100.00
17054;BME280;8643;48.824;11.422;2023-04-20T07:56:18;96695.81;;;7.26;100.00
17054;BME280;8643;48.824;11.422;2023-04-20T07:58:47;96696.06;;;7.73;100.00
17054;BME280;8643;48.824;11.422;2023-04-20T08:01:16;96701.00;;;7.62;100.00
17054;BME280;8643;48.824;11.422;2023-04-20T08:03:44;96701.78;;;7.54;100.00
17054;BME280;8643;48.824;11.422;2023-04-20T08:06:13;96703.91;;;7.08;100.00
17054;BME280;8643;48.824;11.422;2023-04-20T08:08:44;96703.78;;;6.73;100.00
17054;BME280;8643;48.824;11.422;2023-04-20T08:11:12;96707.88;;;6.62;100.00
17054;BME280;8643;48.824;11.422;2023-04-20T08:13:41;96699.88;;;6.34;100.00
17054;BME280;8643;48.824;11.422;2023-04-20T08:16:10;96697.19;;;6.20;100.00
17054;BME280;8643;48.824;11.422;2023-04-20T08:18:39;96703.69;;;6.11;100.00
17054;BME280;8643;48.824;11.422;2023-04-20T08:21:09;96702.72;;;6.29;100.00
17054;BME280;8643;48.824;11.422;2023-04-20T08:23:37;96702.72;;;6.29;100.00
17054;BME280;8643;48.824;11.422;2023-04-20T08:26:07;96698.81;;;6.21;100.00
17054;BME280;8643;48.824;11.422;2023-04-20T08:28:36;96702.88;;;6.33;100.00
17054;BME280;8643;48.824;11.422;2023-04-20T08:31:05;96692.19;;;6.14;100.00
17054;BME280;8643;48.824;11.422;2023-04-20T08:33:34;96697.19;;;5.98;100.00
17054;BME280;8643;48.824;11.422;2023-04-20T08:36:03;96698.31;;;5.83;100.00
17054;BME280;8643;48.824;11.422;2023-04-20T08:38:32;96690.47;;;5.81;100.00
17054;BME280;8643;48.824;11.422;2023-04-20T08:41:01;96689.06;;;5.84;100.00
17054;BME280;8643;48.824;11.422;2023-04-20T08:43:31;96696.84;;;6.13;100.00
17054;BME280;8643;48.824;11.422;2023-04-20T08:46:00;96688.47;;;6.32;100.00
17054;BME280;8643;48.824;11.422;2023-04-20T08:48:34;96696.59;;;6.55;100.00
17054;BME280;8643;48.824;11.422;2023-04-20T08:51:03;96699.13;;;6.42;100.00
17054;BME280;8643;48.824;11.422;2023-04-20T08:53:32;96699.53;;;6.58;100.00
17054;BME280;8643;48.824;11.422;2023-04-20T08:56:01;96703.06;;;6.36;100.00
17054;BME280;8643;48.824;11.422;2023-04-20T08:58:32;96698.97;;;6.02;100.00
17054;BME280;8643;48.824;11.422;2023-04-20T09:01:00;96696.31;;;5.88;100.00
17054;BME280;8643;48.824;11.422;2023-04-20T09:03:33;96696.91;;;5.85;100.00
17054;BME280;8643;48.824;11.422;2023-04-20T09:06:03;96698.16;;;5.65;100.00
17054;BME280;8643;48.824;11.422;2023-04-20T09:08:37;96699.81;;;5.53;100.00
17054;BME280;8643;48.824;11.422;2023-04-20T09:11:06;96690.59;;;5.26;100.00
17054;BME280;8643;48.824;11.422;2023-04-20T09:13:36;96693.72;;;5.19;100.00
17054;BME280;8643;48.824;11.422;2023-04-20T09:16:12;96700.16;;;4.95;100.00
17054;BME280;8643;48.824;11.422;2023-04-20T09:18:51;96697.34;;;5.01;100.00
17054;BME280;8643;48.824;11.422;2023-04-20T09:21:21;96695.44;;;4.87;100.00
17054;BME280;8643;48.824;11.422;2023-04-20T09:23:57;96689.00;;;4.97;100.00
17054;BME280;8643;48.824;11.422;2023-04-20T09:26:30;96687.69;;;4.94;100.00
17054;BME280;8643;48.824;11.422;2023-04-20T09:29:00;96699.22;;;5.00;100.00
17054;BME280;8643;48.824;11.422;2023-04-20T09:31:29;96686.06;;;4.80;100.00
17054;BME280;8643;48.824;11.422;2023-04-20T09:34:00;96690.06;;;4.82;100.00
17054;BME280;8643;48.824;11.422;2023-04-20T09:36:36;96687.66;;;4.67;100.00
17054;BME280;8643;48.824;11.422;2023-04-20T09:39:07;96683.94;;;4.63;100.00
17054;BME280;8643;48.824;11.422;2023-04-20T09:41:37;96686.56;;;4.68;100.00
17054;BME280;8643;48.824;11.422;2023-04-20T09:44:08;96685.56;;;4.64;100.00
17054;BME280;8643;48.824;11.422;2023-04-20T09:46:39;96692.41;;;4.75;100.00
17054;BME280;8643;48.824;11.422;2023-04-20T09:49:09;96688.25;;;4.64;100.00
17054;BME280;8643;48.824;11.422;2023-04-20T09:51:41;96668.09;;;4.98;100.00
17054;BME280;8643;48.824;11.422;2023-04-20T09:54:12;96651.22;;;5.01;100.00
17054;BME280;8643;48.824;11.422;2023-04-20T09:56:42;96650.09;;;5.02;100.00
17054;BME280;8643;48.824;11.422;2023-04-20T09:59:14;96661.13;;;5.19;100.00
17054;BME280;8643;48.824;11.422;2023-04-20T10:01:44;96664.34;;;5.21;100.00
17054;BME280;8643;48.824;11.422;2023-04-20T10:04:14;96662.41;;;5.36;100.00
17054;BME280;8643;48.824;11.422;2023-04-20T10:06:52;96656.25;;;5.44;100.00
17054;BME280;8643;48.824;11.422;2023-04-20T10:09:22;96650.25;;;5.69;100.00
17054;BME280;8643;48.824;11.422;2023-04-20T10:11:52;96647.13;;;5.40;100.00
17054;BME280;8643;48.824;11.422;2023-04-20T10:14:34;96630.25;;;5.65;100.00
17054;BME280;8643;48.824;11.422;2023-04-20T10:17:04;96630.41;;;6.05;100.00
17054;BME280;8643;48.824;11.422;2023-04-20T10:19:41;96632.22;;;6.41;100.00
17054;BME280;8643;48.824;11.422;2023-04-20T10:22:12;96636.94;;;6.27;100.00
17054;BME280;8643;48.824;11.422;2023-04-20T10:24:41;96648.25;;;6.20;100.00
17054;BME280;8643;48.824;11.422;2023-04-20T10:27:16;96648.31;;;5.84;100.00
17054;BME280;8643;48.824;11.422;2023-04-20T10:29:47;96646.09;;;5.49;100.00
17054;BME280;8643;48.824;11.422;2023-04-20T10:32:23;96628.97;;;5.63;100.00
17054;BME280;8643;48.824;11.422;2023-04-20T10:35:02;96626.56;;;5.84;100.00
17054;BME280;8643;48.824;11.422;2023-04-20T10:37:33;96610.53;;;5.96;100.00
17054;BME280;8643;48.824;11.422;2023-04-20T10:40:02;96623.84;;;5.84;100.00
17054;BME280;8643;48.824;11.422;2023-04-20T10:42:41;96627.53;;;5.88;100.00
17054;BME280;8643;48.824;11.422;2023-04-20T10:45:12;96600.75;;;5.73;100.00
17054;BME280;8643;48.824;11.422;2023-04-20T10:47:41;96576.28;;;5.95;100.00
17054;BME280;8643;48.824;11.422;2023-04-20T10:50:13;96577.53;;;6.12;100.00
17054;BME280;8643;48.824;11.422;2023-04-20T10:52:43;96589.31;;;6.30;100.00
17054;BME280;8643;48.824;11.422;2023-04-20T10:55:18;96591.13;;;6.12;100.00
17054;BME280;8643;48.824;11.422;2023-04-20T10:57:47;96608.63;;;5.97;100.00
17054;BME280;8643;48.824;11.422;2023-04-20T11:00:20;96603.38;;;5.86;100.00
17054;BME280;8643;48.824;11.422;2023-04-20T11:02:50;96605.19;;;5.91;100.00
17054;BME280;8643;48.824;11.422;2023-04-20T11:05:21;96594.13;;;5.87;100.00
17054;BME280;8643;48.824;11.422;2023-04-20T11:07:51;96591.69;;;5.77;100.00
17054;BME280;8643;48.824;11.422;2023-04-20T11:10:21;96597.63;;;5.65;100.00
17054;BME280;8643;48.824;11.422;2023-04-20T11:12:51;96592.84;;;5.62;100.00
17054;BME280;8643;48.824;11.422;2023-04-20T11:15:30;96586.13;;;5.82;100.00
17054;BME280;8643;48.824;11.422;2023-04-20T11:18:06;96592.03;;;5.84;100.00
17054;BME280;8643;48.824;11.422;2023-04-20T11:20:35;96585.50;;;6.08;100.00
17054;BME280;8643;48.824;11.422;2023-04-20T11:23:04;96580.72;;;5.91;100.00
17054;BME280;8643;48.824;11.422;2023-04-20T11:25:33;96577.59;;;5.98;100.00
17054;BME280;8643;48.824;11.422;2023-04-20T11:28:06;96570.31;;;6.07;100.00
17054;BME280;8643;48.824;11.422;2023-04-20T11:30:41;96571.03;;;6.21;100.00
17054;BME280;8643;48.824;11.422;2023-04-20T11:33:10;96568.03;;;6.32;100.00
17054;BME280;8643;48.824;11.422;2023-04-20T11:35:41;96570.44;;;6.33;100.00
17054;BME280;8643;48.824;11.422;2023-04-20T11:38:10;96567.84;;;6.28;100.00
17054;BME280;8643;48.824;11.422;2023-04-20T11:40:39;96574.53;;;6.22;100.00
17054;BME280;8643;48.824;11.422;2023-04-20T11:43:08;96573.91;;;6.25;100.00
17054;BME280;8643;48.824;11.422;2023-04-20T11:45:37;96577.34;;;6.39;100.00
17054;BME280;8643;48.824;11.422;2023-04-20T11:48:07;96574.78;;;6.34;100.00
17054;BME280;8643;48.824;11.422;2023-04-20T11:50:37;96575.25;;;6.36;100.00
17054;BME280;8643;48.824;11.422;2023-04-20T11:53:08;96586.97;;;6.46;100.00
17054;BME280;8643;48.824;11.422;2023-04-20T11:55:40;96585.22;;;6.50;100.00
17054;BME280;8643;48.824;11.422;2023-04-20T11:58:09;96588.97;;;6.71;100.00
17054;BME280;8643;48.824;11.422;2023-04-20T12:00:37;96583.28;;;6.90;100.00
17054;BME280;8643;48.824;11.422;2023-04-20T12:03:07;96573.06;;;6.96;100.00
17054;BME280;8643;48.824;11.422;2023-04-20T12:05:36;96578.34;;;7.10;100.00
17054;BME280;8643;48.824;11.422;2023-04-20T12:08:05;96574.22;;;7.12;100.00
17054;BME280;8643;48.824;11.422;2023-04-20T12:10:34;96557.84;;;7.30;100.00
17054;BME280;8643;48.824;11.422;2023-04-20T12:13:03;96556.28;;;7.46;100.00
17054;BME280;8643;48.824;11.422;2023-04-20T12:15:32;96548.59;;;7.31;100.00
17054;BME280;8643;48.824;11.422;2023-04-20T12:18:00;96543.47;;;7.64;100.00
17054;BME280;8643;48.824;11.422;2023-04-20T12:20:31;96529.13;;;7.94;100.00
17054;BME280;8643;48.824;11.422;2023-04-20T12:23:00;96520.69;;;8.25;100.00
17054;BME280;8643;48.824;11.422;2023-04-20T12:25:29;96529.81;;;8.29;100.00
17054;BME280;8643;48.824;11.422;2023-04-20T12:27:58;96525.41;;;8.54;100.00
17054;BME280;8643;48.824;11.422;2023-04-20T12:30:32;96535.88;;;8.43;100.00
17054;BME280;8643;48.824;11.422;2023-04-20T12:33:02;96530.53;;;8.00;100.00
17054;BME280;8643;48.824;11.422;2023-04-20T12:35:32;96528.81;;;7.86;100.00
17054;BME280;8643;48.824;11.422;2023-04-20T12:38:00;96517.22;;;7.98;100.00
17054;BME280;8643;48.824;11.422;2023-04-20T12:40:29;96511.63;;;7.95;100.00
17054;BME280;8643;48.824;11.422;2023-04-20T12:42:58;96508.91;;;7.95;100.00
17054;BME280;8643;48.824;11.422;2023-04-20T12:45:27;96501.81;;;8.11;100.00
17054;BME280;8643;48.824;11.422;2023-04-20T12:47:56;96505.69;;;8.01;100.00
17054;BME280;8643;48.824;11.422;2023-04-20T12:50:27;96514.41;;;8.33;100.00
17054;BME280;8643;48.824;11.422;2023-04-20T12:52:59;96506.34;;;8.46;100.00
17054;BME280;8643;48.824;11.422;2023-04-20T12:55:31;96511.63;;;8.51;100.00
17054;BME280;8643;48.824;11.422;2023-04-20T12:57:59;96510.78;;;8.59;100.00
17054;BME280;8643;48.824;11.422;2023-04-20T13:00:28;96511.84;;;8.67;100.00
17054;BME280;8643;48.824;11.422;2023-04-20T13:02:56;96509.66;;;8.90;100.00
17054;BME280;8643;48.824;11.422;2023-04-20T13:05:25;96507.41;;;9.34;100.00
17054;BME280;8643;48.824;11.422;2023-04-20T13:07:54;96517.78;;;9.41;100.00
17054;BME280;8643;48.824;11.422;2023-04-20T13:10:24;96524.66;;;9.47;100.00
17054;BME280;8643;48.824;11.422;2023-04-20T13:12:53;96519.44;;;9.33;100.00
17054;BME280;8643;48.824;11.422;2023-04-20T13:15:23;96530.63;;;9.19;100.00